createdAt,value
2018-01-27T00:02:01.719Z,5.80
2018-01-27T00:04:29.385Z,5.80
2018-01-27T00:06:57.253Z,5.80
2018-01-27T00:09:24.805Z,5.90
2018-01-27T00:11:52.441Z,5.80
2018-01-27T00:14:20.963Z,5.80
2018-01-27T00:16:49.535Z,5.80
2018-01-27T00:19:17.158Z,5.70
2018-01-27T00:21:44.806Z,5.80
2018-01-27T00:24:13.726Z,5.80
2018-01-27T00:26:42.114Z,5.80
2018-01-27T00:29:09.711Z,5.80
2018-01-27T00:31:37.434Z,5.70
2018-01-27T00:34:06.103Z,5.70
2018-01-27T00:36:34.666Z,5.70
2018-01-27T00:39:02.254Z,5.60
2018-01-27T00:41:29.837Z,5.70
2018-01-27T00:43:57.439Z,5.60
2018-01-27T00:48:59.722Z,5.50
2018-01-27T00:51:27.292Z,5.60
2018-01-27T00:53:55.566Z,5.50
2018-01-27T00:56:23.161Z,5.50
2018-01-27T00:58:50.762Z,5.40
2018-01-27T01:01:19.096Z,5.40
2018-01-27T01:03:46.704Z,5.40
2018-01-27T01:08:48.351Z,5.40
2018-01-27T01:11:15.922Z,5.40
2018-01-27T01:13:43.521Z,5.40
2018-01-27T01:16:11.861Z,5.30
2018-01-27T01:18:40.178Z,5.30
2018-01-27T01:21:07.761Z,5.30
2018-01-27T01:23:35.334Z,5.30
2018-01-27T01:26:02.896Z,5.30
2018-01-27T01:28:30.501Z,5.30
2018-01-27T01:30:58.093Z,5.30
2018-01-27T01:33:26.457Z,5.30
2018-01-27T01:35:54.023Z,5.20
2018-01-27T01:38:21.608Z,5.20
2018-01-27T01:40:49.200Z,5.10
2018-01-27T01:43:22.513Z,5.10
2018-01-27T01:45:50.861Z,5.00
2018-01-27T01:48:18.438Z,5.00
2018-01-27T01:50:46.002Z,5.00
2018-01-27T01:53:13.582Z,5.00
2018-01-27T01:55:41.197Z,5.00
2018-01-27T01:58:08.769Z,5.00
2018-01-27T02:00:36.444Z,5.00
2018-01-27T02:03:04.864Z,4.90
2018-01-27T02:05:32.454Z,4.90
2018-01-27T02:08:00.017Z,4.90
2018-01-27T02:10:27.598Z,4.90
2018-01-27T02:12:55.223Z,4.90
2018-01-27T02:15:22.828Z,4.90
2018-01-27T02:17:50.384Z,4.90
2018-01-27T02:20:17.973Z,4.90
2018-01-27T02:22:45.543Z,4.90
2018-01-27T02:25:13.122Z,4.80
2018-01-27T02:27:40.720Z,4.80
2018-01-27T02:30:08.388Z,4.80
2018-01-27T02:32:35.989Z,4.80
2018-01-27T02:35:03.601Z,4.80
2018-01-27T02:37:31.192Z,4.80
2018-01-27T02:39:58.795Z,4.70
2018-01-27T02:42:26.366Z,4.70
2018-01-27T02:44:54.919Z,4.70
2018-01-27T02:47:23.028Z,4.60
2018-01-27T02:49:50.614Z,4.60
2018-01-27T02:52:18.192Z,4.60
2018-01-27T02:54:45.790Z,4.50
2018-01-27T02:57:14.183Z,4.60
2018-01-27T02:59:42.533Z,4.50
2018-01-27T03:02:10.113Z,4.50
2018-01-27T03:04:37.802Z,4.50
2018-01-27T03:07:05.366Z,4.50
2018-01-27T03:09:33.712Z,4.40
2018-01-27T03:12:01.340Z,4.30
2018-01-27T03:14:28.945Z,4.40
2018-01-27T03:16:56.542Z,4.40
2018-01-27T03:19:24.149Z,4.40
2018-01-27T03:21:51.719Z,4.50
2018-01-27T03:24:19.324Z,4.50
2018-01-27T03:26:47.651Z,4.50
2018-01-27T03:29:15.278Z,4.40
2018-01-27T03:31:42.838Z,4.40
2018-01-27T03:34:11.202Z,4.40
2018-01-27T03:36:38.939Z,4.40
2018-01-27T03:39:06.538Z,4.40
2018-01-27T03:41:34.110Z,4.40
2018-01-27T03:44:01.706Z,4.50
2018-01-27T03:46:29.290Z,4.40
2018-01-27T03:48:56.877Z,4.40
2018-01-27T03:51:25.210Z,4.40
2018-01-27T03:53:52.827Z,4.30
2018-01-27T03:56:20.398Z,4.40
2018-01-27T03:58:47.972Z,4.40
2018-01-27T04:01:15.542Z,4.40
2018-01-27T04:03:43.126Z,4.30
2018-01-27T04:08:45.431Z,4.20
2018-01-27T04:11:13.014Z,4.30
2018-01-27T04:13:41.343Z,4.10
2018-01-27T04:16:09.212Z,4.10
2018-01-27T04:18:36.776Z,4.10
2018-01-27T04:21:04.385Z,4.00
2018-01-27T04:23:31.956Z,4.00
2018-01-27T04:25:59.543Z,3.90
2018-01-27T04:28:27.096Z,3.90
2018-01-27T04:30:54.674Z,3.80
2018-01-27T04:33:22.286Z,3.80
2018-01-27T04:35:50.607Z,3.80
2018-01-27T04:38:18.172Z,3.80
2018-01-27T04:40:45.763Z,3.90
2018-01-27T04:43:13.333Z,3.90
2018-01-27T04:45:40.904Z,3.90
2018-01-27T04:48:08.500Z,3.80
2018-01-27T04:50:36.070Z,3.80
2018-01-27T04:53:03.700Z,3.70
2018-01-27T04:55:31.265Z,3.70
2018-01-27T04:57:58.930Z,3.70
2018-01-27T05:00:27.268Z,3.70
2018-01-27T05:02:54.861Z,3.60
2018-01-27T05:05:22.419Z,3.70
2018-01-27T05:07:50.771Z,3.70
2018-01-27T05:10:18.343Z,3.50
2018-01-27T05:12:45.938Z,3.70
2018-01-27T05:15:13.498Z,3.60
2018-01-27T05:17:41.086Z,3.60
2018-01-27T05:20:08.665Z,3.60
2018-01-27T05:22:36.251Z,3.50
2018-01-27T05:25:03.806Z,3.60
2018-01-27T05:27:31.394Z,3.50
2018-01-27T05:29:59.735Z,3.50
2018-01-27T05:32:27.331Z,3.50
2018-01-27T05:34:54.947Z,3.50
2018-01-27T05:37:23.354Z,3.40
2018-01-27T05:39:51.687Z,3.40
2018-01-27T05:42:19.246Z,3.30
2018-01-27T05:44:46.843Z,3.40
2018-01-27T05:47:14.411Z,3.30
2018-01-27T05:49:42.006Z,3.40
2018-01-27T05:52:09.598Z,3.40
2018-01-27T05:54:39.163Z,3.40
2018-01-27T05:57:06.746Z,3.40
2018-01-27T05:59:34.341Z,3.40
2018-01-27T06:02:01.974Z,3.40
2018-01-27T06:04:29.627Z,3.50
2018-01-27T06:06:57.952Z,3.50
2018-01-27T06:09:25.543Z,3.50
2018-01-27T06:11:53.145Z,3.50
2018-01-27T06:14:21.516Z,3.50
2018-01-27T06:16:50.260Z,3.50
2018-01-27T06:19:17.861Z,3.50
2018-01-27T06:21:45.448Z,3.50
2018-01-27T06:24:13.081Z,3.50
2018-01-27T06:26:40.638Z,3.50
2018-01-27T06:29:08.248Z,3.40
2018-01-27T06:31:35.828Z,3.20
2018-01-27T06:34:03.419Z,3.20
2018-01-27T06:36:31.026Z,3.10
2018-01-27T06:38:59.391Z,3.10
2018-01-27T06:41:27.022Z,3.00
2018-01-27T06:43:54.625Z,3.00
2018-01-27T06:46:22.199Z,3.00
2018-01-27T06:48:49.822Z,3.10
2018-01-27T06:51:17.405Z,3.10
2018-01-27T06:53:45.008Z,3.10
2018-01-27T06:56:12.609Z,3.00
2018-01-27T06:58:40.370Z,2.90
2018-01-27T07:01:07.954Z,2.70
2018-01-27T07:03:36.304Z,2.70
2018-01-27T07:06:03.938Z,2.70
2018-01-27T07:08:31.526Z,2.70
2018-01-27T07:10:59.689Z,2.60
2018-01-27T07:13:28.765Z,2.70
2018-01-27T07:15:56.398Z,2.70
2018-01-27T07:18:24.023Z,2.70
2018-01-27T07:20:51.685Z,2.80
2018-01-27T07:23:20.526Z,2.80
2018-01-27T07:25:48.881Z,2.80
2018-01-27T07:28:16.463Z,2.70
2018-01-27T07:30:44.106Z,2.80
2018-01-27T07:33:11.720Z,2.80
2018-01-27T07:35:40.947Z,2.80
2018-01-27T07:38:09.309Z,2.90
2018-01-27T07:40:36.968Z,2.90
2018-01-27T07:43:04.555Z,2.90
2018-01-27T07:45:32.260Z,2.90
2018-01-27T07:47:59.900Z,3.00
2018-01-27T07:50:27.578Z,3.00
2018-01-27T07:52:55.178Z,3.00
2018-01-27T07:55:22.868Z,3.00
2018-01-27T07:57:50.514Z,3.00
2018-01-27T08:00:18.863Z,2.90
2018-01-27T08:02:46.535Z,2.90
2018-01-27T08:05:14.875Z,2.90
2018-01-27T08:07:43.236Z,3.00
2018-01-27T08:10:12.141Z,2.90
2018-01-27T08:12:40.168Z,3.00
2018-01-27T08:17:41.806Z,3.00
2018-01-27T08:20:09.412Z,2.90
2018-01-27T08:22:36.990Z,2.90
2018-01-27T08:25:05.356Z,2.80
2018-01-27T08:27:34.035Z,2.70
2018-01-27T08:30:01.614Z,2.80
2018-01-27T08:32:30.562Z,2.80
2018-01-27T08:34:58.255Z,2.70
2018-01-27T08:37:25.967Z,2.80
2018-01-27T08:39:54.843Z,2.80
2018-01-27T08:42:23.103Z,2.90
2018-01-27T08:44:50.716Z,2.90
2018-01-27T08:47:18.326Z,3.00
2018-01-27T08:49:45.904Z,3.10
2018-01-27T08:52:14.687Z,3.10
2018-01-27T08:54:43.255Z,3.20
2018-01-27T08:57:10.827Z,3.20
2018-01-27T08:59:38.901Z,3.20
2018-01-27T09:02:07.559Z,3.30
2018-01-27T09:04:35.971Z,3.30
2018-01-27T09:07:05.123Z,3.30
2018-01-27T09:09:32.738Z,3.40
2018-01-27T09:12:01.071Z,3.30
2018-01-27T09:14:29.481Z,3.30
2018-01-27T09:16:57.069Z,3.20
2018-01-27T09:19:25.480Z,3.30
2018-01-27T09:21:54.977Z,3.30
2018-01-27T09:24:22.630Z,3.30
2018-01-27T09:26:50.234Z,3.40
2018-01-27T09:29:17.838Z,3.40
2018-01-27T09:31:45.456Z,3.40
2018-01-27T09:34:13.008Z,3.40
2018-01-27T09:36:41.635Z,3.30
2018-01-27T09:39:09.213Z,3.40
2018-01-27T09:41:37.674Z,3.40
2018-01-27T09:44:06.553Z,3.40
2018-01-27T09:46:34.817Z,3.40
2018-01-27T09:49:03.623Z,3.40
2018-01-27T09:51:32.130Z,3.40
2018-01-27T09:54:00.262Z,3.40
2018-01-27T09:56:28.156Z,3.40
2018-01-27T09:58:55.791Z,3.30
2018-01-27T10:01:24.164Z,3.40
2018-01-27T10:03:52.370Z,3.30
2018-01-27T10:06:19.984Z,3.20
2018-01-27T10:08:47.635Z,3.40
2018-01-27T10:11:15.930Z,3.50
2018-01-27T10:17:40.002Z,3.70
2018-01-27T10:20:07.660Z,3.80
2018-01-27T10:22:35.297Z,3.90
2018-01-27T10:25:03.798Z,4.10
2018-01-27T10:27:31.389Z,4.00
2018-01-27T10:29:59.090Z,4.20
2018-01-27T10:32:27.289Z,4.20
2018-01-27T10:34:55.697Z,4.30
2018-01-27T10:37:23.368Z,4.30
2018-01-27T10:39:50.955Z,4.30
2018-01-27T10:42:19.287Z,4.40
2018-01-27T10:44:46.880Z,4.30
2018-01-27T10:47:14.520Z,4.40
2018-01-27T10:49:42.103Z,4.40
2018-01-27T10:52:09.783Z,4.40
2018-01-27T10:54:38.731Z,4.40
2018-01-27T10:57:06.393Z,4.40
2018-01-27T10:59:35.591Z,4.40
2018-01-27T11:02:05.939Z,4.30
2018-01-27T11:04:33.659Z,4.40
2018-01-27T11:07:02.967Z,4.50
2018-01-27T11:09:32.361Z,4.60
2018-01-27T11:11:59.947Z,4.50
2018-01-27T11:14:29.995Z,4.70
2018-01-27T11:16:58.376Z,4.70
2018-01-27T11:19:27.245Z,4.60
2018-01-27T11:21:54.855Z,4.60
2018-01-27T11:24:23.000Z,4.70
2018-01-27T11:26:50.640Z,4.70
2018-01-27T11:29:18.272Z,4.80
2018-01-27T11:31:46.723Z,4.90
2018-01-27T11:34:14.758Z,4.90
2018-01-27T11:36:42.395Z,4.90
2018-01-27T11:39:10.588Z,5.00
2018-01-27T11:41:38.511Z,5.10
2018-01-27T11:44:06.706Z,5.20
2018-01-27T11:46:35.050Z,5.40
2018-01-27T11:49:02.663Z,5.40
2018-01-27T11:51:31.074Z,5.50
2018-01-27T11:53:58.790Z,5.40
2018-01-27T11:56:26.423Z,5.50
2018-01-27T11:58:55.053Z,5.50
2018-01-27T12:01:25.768Z,5.60
2018-01-27T12:03:53.624Z,5.50
2018-01-27T12:06:21.243Z,5.50
2018-01-27T12:08:49.734Z,5.60
2018-01-27T12:11:17.419Z,5.60
2018-01-27T12:13:45.062Z,5.60
2018-01-27T12:16:12.968Z,5.70
2018-01-27T12:18:41.368Z,5.70
2018-01-27T12:21:09.018Z,5.70
2018-01-27T12:23:37.678Z,5.80
2018-01-27T12:26:06.031Z,5.70
2018-01-27T12:28:33.628Z,5.70
2018-01-27T12:31:02.492Z,5.80
2018-01-27T12:33:31.157Z,5.70
2018-01-27T12:35:59.515Z,5.80
2018-01-27T12:38:27.657Z,5.80
2018-01-27T12:40:55.878Z,5.80
2018-01-27T12:43:24.953Z,5.90
2018-01-27T12:45:52.631Z,6.00
2018-01-27T12:48:21.067Z,6.00
2018-01-27T12:50:49.759Z,5.90
2018-01-27T12:53:17.484Z,5.90
2018-01-27T12:55:47.239Z,6.00
2018-01-27T12:58:14.933Z,6.00
2018-01-27T13:00:43.294Z,6.00
2018-01-27T13:03:12.400Z,6.00
2018-01-27T13:05:39.986Z,6.00
2018-01-27T13:08:08.385Z,6.00
2018-01-27T13:10:36.767Z,6.00
2018-01-27T13:13:05.142Z,6.00
2018-01-27T13:15:32.766Z,6.00
2018-01-27T13:18:00.352Z,6.00
2018-01-27T13:20:28.593Z,6.00
2018-01-27T13:22:56.210Z,6.00
2018-01-27T13:25:23.817Z,6.00
2018-01-27T13:27:51.408Z,6.00
2018-01-27T13:30:19.064Z,6.10
2018-01-27T13:32:46.681Z,6.10
2018-01-27T13:35:14.284Z,6.00
2018-01-27T13:37:43.227Z,6.00
2018-01-27T13:40:10.922Z,6.00
2018-01-27T13:42:40.166Z,6.10
2018-01-27T13:45:08.513Z,6.00
2018-01-27T13:47:37.651Z,6.10
2018-01-27T13:50:05.732Z,6.00
2018-01-27T13:52:33.449Z,6.10
2018-01-27T13:55:01.052Z,6.00
2018-01-27T13:57:28.705Z,6.00
2018-01-27T13:59:57.043Z,5.90
2018-01-27T14:02:24.768Z,5.90
2018-01-27T14:04:54.951Z,5.90
2018-01-27T14:07:24.191Z,5.90
2018-01-27T14:09:52.800Z,6.00
2018-01-27T14:12:22.008Z,5.90
2018-01-27T14:14:51.505Z,6.00
2018-01-27T14:17:19.191Z,6.00
2018-01-27T14:19:47.322Z,5.90
2018-01-27T14:22:16.714Z,6.00
2018-01-27T14:24:46.792Z,6.00
2018-01-27T14:27:14.749Z,6.00
2018-01-27T14:29:42.560Z,6.00
2018-01-27T14:32:10.308Z,5.90
2018-01-27T14:34:39.656Z,6.00
2018-01-27T14:37:07.292Z,5.90
2018-01-27T14:39:35.658Z,5.90
2018-01-27T14:42:03.299Z,5.80
2018-01-27T14:44:30.989Z,5.80
2018-01-27T14:47:00.538Z,5.70
2018-01-27T14:49:29.834Z,5.70
2018-01-27T14:51:58.787Z,5.70
2018-01-27T14:54:27.038Z,5.70
2018-01-27T14:56:56.196Z,5.70
2018-01-27T14:59:23.795Z,5.60
2018-01-27T15:01:51.405Z,5.60
2018-01-27T15:04:19.752Z,5.60
2018-01-27T15:06:48.373Z,5.60
2018-01-27T15:09:16.103Z,5.60
2018-01-27T15:11:43.829Z,5.60
2018-01-27T15:14:11.428Z,5.60
2018-01-27T15:16:41.038Z,5.60
2018-01-27T15:19:08.767Z,5.50
2018-01-27T15:21:36.350Z,5.60
2018-01-27T15:24:03.953Z,5.60
2018-01-27T15:26:31.586Z,5.50
2018-01-27T15:28:59.240Z,5.50
2018-01-27T15:31:27.845Z,5.50
2018-01-27T15:33:56.503Z,5.50
2018-01-27T15:36:24.588Z,5.50
2018-01-27T15:38:52.829Z,5.40
2018-01-27T15:41:20.473Z,5.40
2018-01-27T15:43:48.888Z,5.30
2018-01-27T15:46:16.826Z,5.20
2018-01-27T15:48:45.209Z,5.20
2018-01-27T15:54:11.767Z,5.20
2018-01-27T15:56:40.361Z,5.10
2018-01-27T15:59:07.937Z,5.10
2018-01-27T16:01:36.405Z,5.10
2018-01-27T16:04:04.011Z,5.10
2018-01-27T16:06:31.619Z,5.10
2018-01-27T16:08:59.256Z,5.20
2018-01-27T16:11:27.924Z,5.10
2018-01-27T16:13:55.551Z,5.00
2018-01-27T16:16:23.904Z,5.00
2018-01-27T16:18:52.018Z,4.90
2018-01-27T16:21:20.492Z,4.90
2018-01-27T16:23:48.902Z,4.80
2018-01-27T16:26:16.525Z,4.80
2018-01-27T16:28:44.144Z,4.80
2018-01-27T16:31:11.742Z,4.70
2018-01-27T16:33:40.164Z,4.60
2018-01-27T16:36:07.799Z,4.50
2018-01-27T16:41:33.095Z,4.60
2018-01-27T16:44:00.735Z,4.50
2018-01-27T16:46:28.318Z,4.50
2018-01-27T16:48:56.117Z,4.50
2018-01-27T16:51:24.503Z,4.40
2018-01-27T16:53:52.102Z,4.40
2018-01-27T16:56:19.791Z,4.40
2018-01-27T16:58:47.406Z,4.40
2018-01-27T17:01:14.962Z,4.30
2018-01-27T17:03:42.630Z,4.30
2018-01-27T17:06:11.189Z,4.30
2018-01-27T17:08:39.005Z,4.30
2018-01-27T17:11:06.617Z,4.20
2018-01-27T17:13:34.260Z,4.20
2018-01-27T17:16:01.897Z,4.20
2018-01-27T17:18:30.268Z,4.20
2018-01-27T17:20:57.845Z,4.10
2018-01-27T17:23:26.209Z,4.10
2018-01-27T17:25:53.828Z,4.10
2018-01-27T17:28:22.654Z,4.10
2018-01-27T17:30:53.368Z,4.10
2018-01-27T17:33:21.512Z,4.10
2018-01-27T17:35:51.105Z,4.00
2018-01-27T17:38:20.860Z,4.00
2018-01-27T17:40:49.669Z,4.00
2018-01-27T17:43:20.772Z,3.90
2018-01-27T17:45:48.929Z,3.90
2018-01-27T17:48:19.426Z,3.90
2018-01-27T17:50:48.632Z,3.90
2018-01-27T17:53:17.715Z,3.90
2018-01-27T17:55:45.892Z,3.90
2018-01-27T17:58:15.445Z,3.80
2018-01-27T18:00:44.761Z,3.90
2018-01-27T18:03:13.027Z,3.90
2018-01-27T18:05:42.344Z,3.90
2018-01-27T18:08:12.214Z,3.90
2018-01-27T18:10:41.319Z,3.90
2018-01-27T18:13:11.222Z,3.90
2018-01-27T18:15:42.117Z,3.90
2018-01-27T18:18:12.456Z,3.90
2018-01-27T18:20:40.847Z,4.00
2018-01-27T18:23:11.711Z,4.00
2018-01-27T18:25:41.920Z,3.90
2018-01-27T18:28:10.895Z,3.90
2018-01-27T18:30:39.345Z,3.90
2018-01-27T18:33:07.606Z,3.90
2018-01-27T18:35:35.846Z,3.90
2018-01-27T18:38:07.979Z,3.90
2018-01-27T18:40:37.490Z,3.90
2018-01-27T18:43:06.392Z,3.80
2018-01-27T19:10:41.223Z,5.40
2018-01-27T19:13:08.860Z,5.00
2018-01-27T19:15:36.474Z,4.90
2018-01-27T19:18:05.540Z,4.70
2018-01-27T19:20:33.107Z,4.60
2018-01-27T19:23:01.239Z,4.60
2018-01-27T19:25:28.840Z,4.60
2018-01-27T19:27:57.194Z,4.40
2018-01-27T19:30:24.765Z,4.30
2018-01-27T19:32:52.346Z,4.30
2018-01-27T19:35:20.402Z,4.30
2018-01-27T19:50:19.949Z,5.30
2018-01-27T19:52:48.239Z,4.90
2018-01-27T19:55:17.298Z,4.60
2018-01-27T19:57:45.692Z,4.50
2018-01-27T20:00:15.011Z,4.40
2018-01-27T20:02:43.229Z,4.30
2018-01-27T20:05:12.944Z,4.30
2018-01-27T20:07:42.447Z,4.20
2018-01-27T20:10:11.346Z,4.10
2018-01-27T20:12:39.585Z,4.10
2018-01-27T20:15:08.098Z,4.20
2018-01-27T20:17:36.752Z,4.20
2018-01-27T20:20:05.814Z,4.10
2018-01-27T20:22:34.507Z,4.10
2018-01-27T20:25:03.442Z,4.10
2018-01-27T20:27:32.046Z,4.00
2018-01-27T20:30:00.923Z,4.10
2018-01-27T20:32:29.190Z,4.00
2018-01-27T20:34:57.497Z,4.00
2018-01-27T20:37:26.940Z,4.00
2018-01-27T20:39:56.887Z,4.00
2018-01-27T20:42:25.785Z,4.00
2018-01-27T20:44:54.691Z,4.00
2018-01-27T20:47:23.985Z,4.00
2018-01-27T20:49:53.477Z,4.00
2018-01-27T20:52:22.512Z,4.00
2018-01-27T20:54:51.670Z,4.00
2018-01-27T20:57:19.674Z,4.00
2018-01-27T20:59:49.704Z,4.00
2018-01-27T21:02:21.255Z,4.00
2018-01-27T21:04:49.382Z,4.00
2018-01-27T21:07:18.555Z,4.00
2018-01-27T21:09:46.940Z,4.00
2018-01-27T21:12:15.637Z,4.00
2018-01-27T21:14:44.631Z,4.00
2018-01-27T21:17:13.557Z,4.00
2018-01-27T21:19:43.851Z,4.00
2018-01-27T21:22:12.081Z,4.00
2018-01-27T21:24:40.436Z,4.00
2018-01-27T21:27:08.356Z,4.10
2018-01-27T21:29:37.263Z,4.10
2018-01-27T21:32:05.515Z,4.00
2018-01-27T21:34:33.648Z,4.00
2018-01-27T21:37:02.916Z,4.00
2018-01-27T21:39:31.085Z,4.00
2018-01-27T21:42:00.033Z,4.00
2018-01-27T21:44:29.687Z,4.00
2018-01-27T21:46:58.705Z,4.00
2018-01-27T21:49:28.020Z,3.90
2018-01-27T21:51:56.084Z,4.10
2018-01-27T21:54:24.394Z,4.10
2018-01-27T21:56:52.507Z,4.00
2018-01-27T21:59:21.350Z,4.10
2018-01-27T22:01:50.223Z,4.00
2018-01-27T22:04:19.242Z,4.10
2018-01-27T22:06:47.600Z,4.00
2018-01-27T22:09:17.421Z,4.10
2018-01-27T22:11:45.443Z,4.10
2018-01-27T22:14:14.344Z,4.10
2018-01-27T22:16:42.403Z,4.10
2018-01-27T22:19:11.286Z,4.10
2018-01-27T22:21:41.753Z,4.10
2018-01-27T22:24:09.360Z,4.10
2018-01-27T22:29:10.989Z,4.10
2018-01-27T22:31:38.691Z,4.10
2018-01-27T22:34:06.255Z,4.20
2018-01-27T22:36:33.861Z,4.20
2018-01-27T23:22:42.370Z,4.10
2018-01-27T23:25:09.954Z,3.90
2018-01-27T23:27:37.717Z,3.90
2018-01-27T23:30:05.329Z,3.90
2018-01-27T23:32:32.948Z,4.00
2018-01-27T23:35:00.540Z,4.00
2018-01-27T23:37:28.207Z,4.00
2018-01-27T23:39:55.819Z,4.10
2018-01-27T23:42:23.400Z,4.10
2018-01-27T23:44:51.003Z,4.10
2018-01-27T23:47:18.696Z,4.10
2018-01-27T23:49:47.075Z,4.20
2018-01-27T23:52:14.630Z,4.10
2018-01-27T23:54:42.188Z,4.20
2018-01-27T23:57:09.763Z,4.20
2018-01-27T23:59:37.426Z,4.20
